sensor_id;sensor_type;location;lat;lon;timestamp;temperature;humidity
17178;DHT22;8704;52.006;4.374;2023-05-15T00:00:07;11.00;1.00
17178;DHT22;8704;52.006;4.374;2023-05-15T00:02:37;11.00;1.00
17178;DHT22;8704;52.006;4.374;2023-05-15T00:05:06;11.00;1.00
17178;DHT22;8704;52.006;4.374;2023-05-15T00:07:35;11.00;1.00
17178;DHT22;8704;52.006;4.374;2023-05-15T00:10:03;10.90;1.00
17178;DHT22;8704;52.006;4.374;2023-05-15T00:12:31;10.90;1.00
17178;DHT22;8704;52.006;4.374;2023-05-15T00:14:59;10.90;1.00
17178;DHT22;8704;52.006;4.374;2023-05-15T00:17:27;10.80;1.00
17178;DHT22;8704;52.006;4.374;2023-05-15T00:19:57;10.80;1.00
17178;DHT22;8704;52.006;4.374;2023-05-15T00:22:26;10.80;1.00
17178;DHT22;8704;52.006;4.374;2023-05-15T00:24:54;11.20;1.00
17178;DHT22;8704;52.006;4.374;2023-05-15T00:27:22;10.70;1.00
17178;DHT22;8704;52.006;4.374;2023-05-15T00:29:49;10.70;1.00
17178;DHT22;8704;52.006;4.374;2023-05-15T00:32:17;10.80;1.00
17178;DHT22;8704;52.006;4.374;2023-05-15T00:34:45;10.60;1.00
17178;DHT22;8704;52.006;4.374;2023-05-15T00:37:15;10.60;1.00
17178;DHT22;8704;52.006;4.374;2023-05-15T00:39:43;10.70;1.00
17178;DHT22;8704;52.006;4.374;2023-05-15T00:42:11;10.70;1.00
17178;DHT22;8704;52.006;4.374;2023-05-15T00:44:40;10.60;1.00
17178;DHT22;8704;52.006;4.374;2023-05-15T00:47:10;10.60;1.00
17178;DHT22;8704;52.006;4.374;2023-05-15T00:49:39;10.60;1.00
17178;DHT22;8704;52.006;4.374;2023-05-15T00:52:08;10.60;1.00
17178;DHT22;8704;52.006;4.374;2023-05-15T00:54:37;10.60;3.80
17178;DHT22;8704;52.006;4.374;2023-05-15T00:57:07;10.60;1.00
17178;DHT22;8704;52.006;4.374;2023-05-15T00:59:38;10.60;1.00
17178;DHT22;8704;52.006;4.374;2023-05-15T01:02:06;10.50;1.00
17178;DHT22;8704;52.006;4.374;2023-05-15T01:04:34;10.50;1.00
17178;DHT22;8704;52.006;4.374;2023-05-15T01:07:02;10.90;1.00
17178;DHT22;8704;52.006;4.374;2023-05-15T01:09:31;10.40;1.00
17178;DHT22;8704;52.006;4.374;2023-05-15T01:12:04;10.50;1.00
17178;DHT22;8704;52.006;4.374;2023-05-15T01:14:34;10.40;1.00
17178;DHT22;8704;52.006;4.374;2023-05-15T01:17:02;10.60;1.00
17178;DHT22;8704;52.006;4.374;2023-05-15T01:19:30;10.40;1.00
17178;DHT22;8704;52.006;4.374;2023-05-15T01:22:18;10.40;1.00
17178;DHT22;8704;52.006;4.374;2023-05-15T01:25:03;10.30;1.00
17178;DHT22;8704;52.006;4.374;2023-05-15T01:27:36;10.30;1.00
17178;DHT22;8704;52.006;4.374;2023-05-15T01:30:13;10.20;1.00
17178;DHT22;8704;52.006;4.374;2023-05-15T01:32:45;10.20;1.00
17178;DHT22;8704;52.006;4.374;2023-05-15T01:35:20;10.10;1.00
17178;DHT22;8704;52.006;4.374;2023-05-15T01:37:55;10.10;1.00
17178;DHT22;8704;52.006;4.374;2023-05-15T01:40:25;10.20;1.00
17178;DHT22;8704;52.006;4.374;2023-05-15T01:43:00;10.10;1.00
17178;DHT22;8704;52.006;4.374;2023-05-15T01:45:31;10.10;10.80
17178;DHT22;8704;52.006;4.374;2023-05-15T01:48:00;10.10;3.70
17178;DHT22;8704;52.006;4.374;2023-05-15T01:50:31;10.10;26.30
17178;DHT22;8704;52.006;4.374;2023-05-15T01:53:01;10.10;46.90
17178;DHT22;8704;52.006;4.374;2023-05-15T01:55:29;10.10;50.30
17178;DHT22;8704;52.006;4.374;2023-05-15T01:58:00;10.10;27.40
17178;DHT22;8704;52.006;4.374;2023-05-15T02:00:30;10.10;48.00
17178;DHT22;8704;52.006;4.374;2023-05-15T02:02:59;10.10;88.20
17178;DHT22;8704;52.006;4.374;2023-05-15T02:05:28;10.30;99.90
17178;DHT22;8704;52.006;4.374;2023-05-15T02:07:58;10.10;99.90
17178;DHT22;8704;52.006;4.374;2023-05-15T02:10:27;10.10;99.90
17178;DHT22;8704;52.006;4.374;2023-05-15T02:12:56;10.10;99.90
17178;DHT22;8704;52.006;4.374;2023-05-15T02:15:26;10.00;99.90
17178;DHT22;8704;52.006;4.374;2023-05-15T02:17:55;10.10;99.90
17178;DHT22;8704;52.006;4.374;2023-05-15T02:20:23;10.00;99.90
17178;DHT22;8704;52.006;4.374;2023-05-15T02:22:51;10.00;99.90
17178;DHT22;8704;52.006;4.374;2023-05-15T02:25:20;10.00;99.90
17178;DHT22;8704;52.006;4.374;2023-05-15T02:27:56;10.00;99.90
17178;DHT22;8704;52.006;4.374;2023-05-15T02:30:33;10.40;99.90
17178;DHT22;8704;52.006;4.374;2023-05-15T02:33:11;9.90;99.90
17178;DHT22;8704;52.006;4.374;2023-05-15T02:35:47;9.90;99.90
17178;DHT22;8704;52.006;4.374;2023-05-15T02:38:16;9.90;99.90
17178;DHT22;8704;52.006;4.374;2023-05-15T02:40:46;9.90;99.90
17178;DHT22;8704;52.006;4.374;2023-05-15T02:43:16;9.90;99.50
17178;DHT22;8704;52.006;4.374;2023-05-15T02:45:46;9.80;94.90
17178;DHT22;8704;52.006;4.374;2023-05-15T02:48:14;9.90;94.70
17178;DHT22;8704;52.006;4.374;2023-05-15T02:50:43;9.80;99.90
17178;DHT22;8704;52.006;4.374;2023-05-15T02:53:11;9.80;99.90
17178;DHT22;8704;52.006;4.374;2023-05-15T02:55:41;9.80;99.90
17178;DHT22;8704;52.006;4.374;2023-05-15T02:58:09;9.80;99.90
17178;DHT22;8704;52.006;4.374;2023-05-15T03:00:37;9.80;99.90
17178;DHT22;8704;52.006;4.374;2023-05-15T03:03:06;9.80;99.90
17178;DHT22;8704;52.006;4.374;2023-05-15T03:05:34;9.80;99.90
17178;DHT22;8704;52.006;4.374;2023-05-15T03:08:03;9.80;99.90
17178;DHT22;8704;52.006;4.374;2023-05-15T03:10:31;9.80;99.90
17178;DHT22;8704;52.006;4.374;2023-05-15T03:12:59;9.90;99.90
17178;DHT22;8704;52.006;4.374;2023-05-15T03:15:27;9.90;99.90
17178;DHT22;8704;52.006;4.374;2023-05-15T03:17:55;9.90;99.90
17178;DHT22;8704;52.006;4.374;2023-05-15T03:20:24;9.90;99.90
17178;DHT22;8704;52.006;4.374;2023-05-15T03:22:52;9.90;99.90
17178;DHT22;8704;52.006;4.374;2023-05-15T03:25:21;10.00;99.90
17178;DHT22;8704;52.006;4.374;2023-05-15T03:27:49;10.00;99.90
17178;DHT22;8704;52.006;4.374;2023-05-15T03:30:17;10.00;99.90
17178;DHT22;8704;52.006;4.374;2023-05-15T03:32:45;10.10;99.90
17178;DHT22;8704;52.006;4.374;2023-05-15T03:35:13;10.10;99.90
17178;DHT22;8704;52.006;4.374;2023-05-15T03:37:42;10.10;99.90
17178;DHT22;8704;52.006;4.374;2023-05-15T03:40:11;10.20;99.90
17178;DHT22;8704;52.006;4.374;2023-05-15T03:42:39;10.20;99.90
17178;DHT22;8704;52.006;4.374;2023-05-15T03:45:08;10.20;99.90
17178;DHT22;8704;52.006;4.374;2023-05-15T03:47:36;10.30;99.90
17178;DHT22;8704;52.006;4.374;2023-05-15T03:50:05;10.30;99.90
17178;DHT22;8704;52.006;4.374;2023-05-15T03:52:33;10.30;99.90
17178;DHT22;8704;52.006;4.374;2023-05-15T03:55:03;10.30;99.90
17178;DHT22;8704;52.006;4.374;2023-05-15T03:57:31;10.40;99.90
17178;DHT22;8704;52.006;4.374;2023-05-15T04:00:01;10.40;99.90
17178;DHT22;8704;52.006;4.374;2023-05-15T04:02:33;10.30;99.90
17178;DHT22;8704;52.006;4.374;2023-05-15T04:05:01;10.40;99.90
17178;DHT22;8704;52.006;4.374;2023-05-15T04:07:30;10.30;99.90
17178;DHT22;8704;52.006;4.374;2023-05-15T04:09:58;10.40;99.90
17178;DHT22;8704;52.006;4.374;2023-05-15T04:12:28;10.40;99.90
17178;DHT22;8704;52.006;4.374;2023-05-15T04:14:58;10.50;99.90
17178;DHT22;8704;52.006;4.374;2023-05-15T04:17:26;10.60;99.90
17178;DHT22;8704;52.006;4.374;2023-05-15T04:19:56;10.50;99.90
17178;DHT22;8704;52.006;4.374;2023-05-15T04:22:23;10.70;99.90
17178;DHT22;8704;52.006;4.374;2023-05-15T04:24:51;10.50;99.90
17178;DHT22;8704;52.006;4.374;2023-05-15T04:27:19;10.90;99.90
17178;DHT22;8704;52.006;4.374;2023-05-15T04:29:49;10.60;99.90
17178;DHT22;8704;52.006;4.374;2023-05-15T04:32:17;10.80;99.90
17178;DHT22;8704;52.006;4.374;2023-05-15T04:34:45;10.60;99.90
17178;DHT22;8704;52.006;4.374;2023-05-15T04:37:13;10.70;99.90
17178;DHT22;8704;52.006;4.374;2023-05-15T04:39:41;11.10;99.90
17178;DHT22;8704;52.006;4.374;2023-05-15T04:42:09;10.80;99.90
17178;DHT22;8704;52.006;4.374;2023-05-15T04:44:37;11.30;99.90
17178;DHT22;8704;52.006;4.374;2023-05-15T04:47:06;10.80;99.90
17178;DHT22;8704;52.006;4.374;2023-05-15T04:49:34;11.00;99.90
17178;DHT22;8704;52.006;4.374;2023-05-15T04:52:02;11.50;99.90
17178;DHT22;8704;52.006;4.374;2023-05-15T04:54:30;10.90;99.90
17178;DHT22;8704;52.006;4.374;2023-05-15T04:56:58;11.00;99.90
17178;DHT22;8704;52.006;4.374;2023-05-15T04:59:27;11.00;99.90
17178;DHT22;8704;52.006;4.374;2023-05-15T05:01:55;11.00;99.90
17178;DHT22;8704;52.006;4.374;2023-05-15T05:04:25;11.10;99.90
17178;DHT22;8704;52.006;4.374;2023-05-15T05:06:53;11.10;99.90
17178;DHT22;8704;52.006;4.374;2023-05-15T05:09:21;11.20;99.90
17178;DHT22;8704;52.006;4.374;2023-05-15T05:11:48;11.10;99.90
17178;DHT22;8704;52.006;4.374;2023-05-15T05:14:16;11.10;97.80
17178;DHT22;8704;52.006;4.374;2023-05-15T05:16:44;11.10;75.00
17178;DHT22;8704;52.006;4.374;2023-05-15T05:19:12;11.50;42.70
17178;DHT22;8704;52.006;4.374;2023-05-15T05:21:42;11.20;45.60
17178;DHT22;8704;52.006;4.374;2023-05-15T05:24:10;11.30;37.30
17178;DHT22;8704;52.006;4.374;2023-05-15T05:26:38;11.80;46.70
17178;DHT22;8704;52.006;4.374;2023-05-15T05:29:06;11.30;33.80
17178;DHT22;8704;52.006;4.374;2023-05-15T05:31:34;11.30;49.20
17178;DHT22;8704;52.006;4.374;2023-05-15T05:34:01;11.30;44.20
17178;DHT22;8704;52.006;4.374;2023-05-15T05:36:29;11.40;74.20
17178;DHT22;8704;52.006;4.374;2023-05-15T05:38:59;11.40;99.30
17178;DHT22;8704;52.006;4.374;2023-05-15T05:41:27;11.40;99.90
17178;DHT22;8704;52.006;4.374;2023-05-15T05:43:56;11.40;66.80
17178;DHT22;8704;52.006;4.374;2023-05-15T05:46:24;11.40;69.30
17178;DHT22;8704;52.006;4.374;2023-05-15T05:48:52;11.40;49.50
17178;DHT22;8704;52.006;4.374;2023-05-15T05:51:20;11.50;40.20
17178;DHT22;8704;52.006;4.374;2023-05-15T05:53:48;11.90;40.00
17178;DHT22;8704;52.006;4.374;2023-05-15T05:56:18;12.50;28.00
17178;DHT22;8704;52.006;4.374;2023-05-15T05:58:47;11.60;54.80
17178;DHT22;8704;52.006;4.374;2023-05-15T06:01:15;11.60;45.20
17178;DHT22;8704;52.006;4.374;2023-05-15T06:03:43;11.80;27.80
17178;DHT22;8704;52.006;4.374;2023-05-15T06:06:11;11.80;33.30
17178;DHT22;8704;52.006;4.374;2023-05-15T06:08:39;11.80;52.70
17178;DHT22;8704;52.006;4.374;2023-05-15T06:11:07;11.80;36.10
17178;DHT22;8704;52.006;4.374;2023-05-15T06:13:36;12.00;60.20
17178;DHT22;8704;52.006;4.374;2023-05-15T06:16:05;11.90;72.70
17178;DHT22;8704;52.006;4.374;2023-05-15T06:18:33;12.00;97.20
17178;DHT22;8704;52.006;4.374;2023-05-15T06:21:01;11.90;35.80
17178;DHT22;8704;52.006;4.374;2023-05-15T06:23:29;12.00;2.60
17178;DHT22;8704;52.006;4.374;2023-05-15T06:25:57;12.20;10.00
17178;DHT22;8704;52.006;4.374;2023-05-15T06:28:25;12.10;33.90
17178;DHT22;8704;52.006;4.374;2023-05-15T06:30:55;12.20;31.70
17178;DHT22;8704;52.006;4.374;2023-05-15T06:33:23;12.20;30.90
17178;DHT22;8704;52.006;4.374;2023-05-15T06:35:51;12.30;9.40
17178;DHT22;8704;52.006;4.374;2023-05-15T06:38:18;12.30;1.00
17178;DHT22;8704;52.006;4.374;2023-05-15T06:40:46;13.00;1.00
17178;DHT22;8704;52.006;4.374;2023-05-15T06:43:14;12.40;1.00
17178;DHT22;8704;52.006;4.374;2023-05-15T06:45:42;12.40;1.00
17178;DHT22;8704;52.006;4.374;2023-05-15T06:48:11;12.40;1.00
17178;DHT22;8704;52.006;4.374;2023-05-15T06:50:39;12.50;1.00
17178;DHT22;8704;52.006;4.374;2023-05-15T06:53:07;12.60;1.00
17178;DHT22;8704;52.006;4.374;2023-05-15T06:55:37;13.00;1.00
17178;DHT22;8704;52.006;4.374;2023-05-15T06:58:05;12.70;1.00
17178;DHT22;8704;52.006;4.374;2023-05-15T07:00:33;12.80;1.00
17178;DHT22;8704;52.006;4.374;2023-05-15T07:03:01;12.80;1.00
17178;DHT22;8704;52.006;4.374;2023-05-15T07:05:30;12.80;1.00
17178;DHT22;8704;52.006;4.374;2023-05-15T07:07:58;12.80;1.00
17178;DHT22;8704;52.006;4.374;2023-05-15T07:10:26;12.80;1.00
17178;DHT22;8704;52.006;4.374;2023-05-15T07:12:54;12.90;1.00
17178;DHT22;8704;52.006;4.374;2023-05-15T07:15:22;12.90;1.00
17178;DHT22;8704;52.006;4.374;2023-05-15T07:17:50;13.60;1.00
17178;DHT22;8704;52.006;4.374;2023-05-15T07:20:18;12.90;1.00
17178;DHT22;8704;52.006;4.374;2023-05-15T07:22:47;12.90;1.00
17178;DHT22;8704;52.006;4.374;2023-05-15T07:25:22;13.00;1.00
17178;DHT22;8704;52.006;4.374;2023-05-15T07:27:51;13.50;1.00
17178;DHT22;8704;52.006;4.374;2023-05-15T07:30:19;13.00;1.00
17178;DHT22;8704;52.006;4.374;2023-05-15T07:32:48;12.90;1.00
17178;DHT22;8704;52.006;4.374;2023-05-15T07:35:16;13.00;1.00
17178;DHT22;8704;52.006;4.374;2023-05-15T07:37:46;13.00;1.00
17178;DHT22;8704;52.006;4.374;2023-05-15T07:40:14;13.00;1.00
17178;DHT22;8704;52.006;4.374;2023-05-15T07:42:42;13.00;1.00
17178;DHT22;8704;52.006;4.374;2023-05-15T07:45:11;13.00;1.00
17178;DHT22;8704;52.006;4.374;2023-05-15T07:47:43;13.00;1.00
17178;DHT22;8704;52.006;4.374;2023-05-15T07:50:11;13.00;1.00
17178;DHT22;8704;52.006;4.374;2023-05-15T07:52:40;13.00;1.00
17178;DHT22;8704;52.006;4.374;2023-05-15T07:55:10;13.00;1.00
17178;DHT22;8704;52.006;4.374;2023-05-15T07:57:38;12.90;1.00
17178;DHT22;8704;52.006;4.374;2023-05-15T08:00:07;12.90;1.00
17178;DHT22;8704;52.006;4.374;2023-05-15T08:02:39;12.90;1.00
17178;DHT22;8704;52.006;4.374;2023-05-15T08:05:08;13.00;1.00
17178;DHT22;8704;52.006;4.374;2023-05-15T08:07:36;13.00;1.00
17178;DHT22;8704;52.006;4.374;2023-05-15T08:10:05;13.00;1.00
17178;DHT22;8704;52.006;4.374;2023-05-15T08:12:35;12.90;1.00
17178;DHT22;8704;52.006;4.374;2023-05-15T08:15:03;13.00;1.00
17178;DHT22;8704;52.006;4.374;2023-05-15T08:17:32;12.90;1.00
17178;DHT22;8704;52.006;4.374;2023-05-15T08:20:00;12.90;1.00
17178;DHT22;8704;52.006;4.374;2023-05-15T08:22:28;12.90;1.00
17178;DHT22;8704;52.006;4.374;2023-05-15T08:24:57;13.00;1.00
17178;DHT22;8704;52.006;4.374;2023-05-15T08:27:26;13.00;1.00
17178;DHT22;8704;52.006;4.374;2023-05-15T08:29:55;13.00;1.00
17178;DHT22;8704;52.006;4.374;2023-05-15T08:32:23;12.90;1.00
17178;DHT22;8704;52.006;4.374;2023-05-15T08:34:51;13.00;1.00
17178;DHT22;8704;52.006;4.374;2023-05-15T08:37:19;12.90;1.00
17178;DHT22;8704;52.006;4.374;2023-05-15T08:39:47;12.90;1.00
17178;DHT22;8704;52.006;4.374;2023-05-15T08:42:20;13.00;1.70
17178;DHT22;8704;52.006;4.374;2023-05-15T08:44:49;13.00;4.60
17178;DHT22;8704;52.006;4.374;2023-05-15T08:47:18;13.70;1.00
17178;DHT22;8704;52.006;4.374;2023-05-15T08:49:51;13.30;1.00
17178;DHT22;8704;52.006;4.374;2023-05-15T08:52:21;13.00;1.00
17178;DHT22;8704;52.006;4.374;2023-05-15T08:54:49;13.20;1.00
17178;DHT22;8704;52.006;4.374;2023-05-15T08:57:17;13.20;1.00
17178;DHT22;8704;52.006;4.374;2023-05-15T08:59:45;13.30;1.00
17178;DHT22;8704;52.006;4.374;2023-05-15T09:02:14;13.30;1.00
17178;DHT22;8704;52.006;4.374;2023-05-15T09:04:43;13.30;1.00
17178;DHT22;8704;52.006;4.374;2023-05-15T09:07:13;13.40;1.00
17178;DHT22;8704;52.006;4.374;2023-05-15T09:09:42;14.00;1.00
17178;DHT22;8704;52.006;4.374;2023-05-15T09:12:13;13.60;1.00
17178;DHT22;8704;52.006;4.374;2023-05-15T09:14:42;13.70;1.00
17178;DHT22;8704;52.006;4.374;2023-05-15T09:17:10;13.80;1.00
17178;DHT22;8704;52.006;4.374;2023-05-15T09:19:39;13.80;1.00
17178;DHT22;8704;52.006;4.374;2023-05-15T09:22:18;14.00;1.00
17178;DHT22;8704;52.006;4.374;2023-05-15T09:24:49;14.40;1.00
17178;DHT22;8704;52.006;4.374;2023-05-15T09:27:19;13.90;1.00
17178;DHT22;8704;52.006;4.374;2023-05-15T09:29:47;14.00;1.00
17178;DHT22;8704;52.006;4.374;2023-05-15T09:32:17;13.90;1.00
17178;DHT22;8704;52.006;4.374;2023-05-15T09:34:45;13.90;1.00
17178;DHT22;8704;52.006;4.374;2023-05-15T09:37:28;14.00;1.00
17178;DHT22;8704;52.006;4.374;2023-05-15T09:40:06;14.10;1.00
17178;DHT22;8704;52.006;4.374;2023-05-15T09:42:37;14.20;1.00
17178;DHT22;8704;52.006;4.374;2023-05-15T09:45:10;14.20;1.00
17178;DHT22;8704;52.006;4.374;2023-05-15T09:47:44;14.20;1.00
17178;DHT22;8704;52.006;4.374;2023-05-15T09:50:13;14.10;1.00
17178;DHT22;8704;52.006;4.374;2023-05-15T09:52:48;14.00;1.00
17178;DHT22;8704;52.006;4.374;2023-05-15T09:55:17;14.10;1.00
17178;DHT22;8704;52.006;4.374;2023-05-15T09:58:03;14.10;1.00
17178;DHT22;8704;52.006;4.374;2023-05-15T10:00:32;14.00;1.00
17178;DHT22;8704;52.006;4.374;2023-05-15T10:03:01;14.00;1.00
17178;DHT22;8704;52.006;4.374;2023-05-15T10:05:29;14.00;1.00
17178;DHT22;8704;52.006;4.374;2023-05-15T10:08:10;14.00;1.00
17178;DHT22;8704;52.006;4.374;2023-05-15T10:10:40;14.00;1.00
17178;DHT22;8704;52.006;4.374;2023-05-15T10:13:10;14.00;1.00
17178;DHT22;8704;52.006;4.374;2023-05-15T10:15:39;14.00;1.00
17178;DHT22;8704;52.006;4.374;2023-05-15T10:18:07;14.00;1.00
17178;DHT22;8704;52.006;4.374;2023-05-15T10:20:36;14.40;1.00
17178;DHT22;8704;52.006;4.374;2023-05-15T10:23:04;14.80;1.00
17178;DHT22;8704;52.006;4.374;2023-05-15T10:25:40;14.20;1.00
17178;DHT22;8704;52.006;4.374;2023-05-15T10:28:10;14.70;1.00
17178;DHT22;8704;52.006;4.374;2023-05-15T10:30:38;14.70;1.00
17178;DHT22;8704;52.006;4.374;2023-05-15T10:33:07;14.50;1.00
17178;DHT22;8704;52.006;4.374;2023-05-15T10:35:35;14.90;1.00
17178;DHT22;8704;52.006;4.374;2023-05-15T10:38:04;15.20;1.00
17178;DHT22;8704;52.006;4.374;2023-05-15T10:40:37;15.50;1.00
17178;DHT22;8704;52.006;4.374;2023-05-15T10:43:08;14.60;1.00
17178;DHT22;8704;52.006;4.374;2023-05-15T10:45:37;15.30;1.00
17178;DHT22;8704;52.006;4.374;2023-05-15T10:48:06;14.90;1.00
17178;DHT22;8704;52.006;4.374;2023-05-15T10:50:37;14.50;1.00
17178;DHT22;8704;52.006;4.374;2023-05-15T10:53:07;14.30;1.00
17178;DHT22;8704;52.006;4.374;2023-05-15T10:55:37;14.40;1.00
17178;DHT22;8704;52.006;4.374;2023-05-15T10:58:07;14.50;1.00
17178;DHT22;8704;52.006;4.374;2023-05-15T11:00:40;14.40;1.00
17178;DHT22;8704;52.006;4.374;2023-05-15T11:03:12;14.30;1.00
17178;DHT22;8704;52.006;4.374;2023-05-15T11:06:05;14.10;1.00
17178;DHT22;8704;52.006;4.374;2023-05-15T11:08:34;14.10;1.00
17178;DHT22;8704;52.006;4.374;2023-05-15T11:11:03;14.00;1.00
17178;DHT22;8704;52.006;4.374;2023-05-15T11:14:10;14.00;1.00
17178;DHT22;8704;52.006;4.374;2023-05-15T11:16:57;14.00;1.00
17178;DHT22;8704;52.006;4.374;2023-05-15T11:19:34;13.90;1.00
17178;DHT22;8704;52.006;4.374;2023-05-15T11:22:15;13.90;1.00
17178;DHT22;8704;52.006;4.374;2023-05-15T11:24:51;13.90;1.00
17178;DHT22;8704;52.006;4.374;2023-05-15T11:27:22;14.00;1.00
17178;DHT22;8704;52.006;4.374;2023-05-15T11:30:10;14.10;1.00
17178;DHT22;8704;52.006;4.374;2023-05-15T11:35:27;13.80;1.00
17178;DHT22;8704;52.006;4.374;2023-05-15T11:37:57;14.00;1.00
17178;DHT22;8704;52.006;4.374;2023-05-15T11:40:26;14.30;1.00
17178;DHT22;8704;52.006;4.374;2023-05-15T11:43:01;13.70;1.00
17178;DHT22;8704;52.006;4.374;2023-05-15T11:45:31;14.00;1.00
17178;DHT22;8704;52.006;4.374;2023-05-15T11:48:01;13.70;1.00
17178;DHT22;8704;52.006;4.374;2023-05-15T11:50:30;13.70;1.00
17178;DHT22;8704;52.006;4.374;2023-05-15T11:53:02;13.60;1.00
17178;DHT22;8704;52.006;4.374;2023-05-15T11:55:32;13.90;1.00
17178;DHT22;8704;52.006;4.374;2023-05-15T11:58:02;13.50;1.00
17178;DHT22;8704;52.006;4.374;2023-05-15T12:00:30;13.50;1.00
17178;DHT22;8704;52.006;4.374;2023-05-15T12:02:58;13.70;1.00
17178;DHT22;8704;52.006;4.374;2023-05-15T12:05:26;13.40;1.00
17178;DHT22;8704;52.006;4.374;2023-05-15T12:07:54;13.70;1.00
17178;DHT22;8704;52.006;4.374;2023-05-15T12:10:22;13.70;1.00
17178;DHT22;8704;52.006;4.374;2023-05-15T12:12:51;13.70;1.00
17178;DHT22;8704;52.006;4.374;2023-05-15T12:15:20;13.80;1.00
17178;DHT22;8704;52.006;4.374;2023-05-15T12:17:48;13.70;1.00
17178;DHT22;8704;52.006;4.374;2023-05-15T12:20:17;13.60;1.00
17178;DHT22;8704;52.006;4.374;2023-05-15T12:22:45;13.60;1.00
17178;DHT22;8704;52.006;4.374;2023-05-15T12:25:14;13.60;1.00
17178;DHT22;8704;52.006;4.374;2023-05-15T12:27:43;13.50;1.00
17178;DHT22;8704;52.006;4.374;2023-05-15T12:30:14;13.70;1.00
17178;DHT22;8704;52.006;4.374;2023-05-15T12:32:43;13.60;1.00
17178;DHT22;8704;52.006;4.374;2023-05-15T12:35:12;13.80;1.00
17178;DHT22;8704;52.006;4.374;2023-05-15T12:37:40;13.60;1.00
17178;DHT22;8704;52.006;4.374;2023-05-15T12:40:09;13.90;1.00
17178;DHT22;8704;52.006;4.374;2023-05-15T12:42:42;13.50;1.00
17178;DHT22;8704;52.006;4.374;2023-05-15T12:45:14;13.80;1.00
17178;DHT22;8704;52.006;4.374;2023-05-15T12:47:44;13.50;1.00
17178;DHT22;8704;52.006;4.374;2023-05-15T12:50:14;13.60;1.00
17178;DHT22;8704;52.006;4.374;2023-05-15T12:52:49;13.70;1.00
17178;DHT22;8704;52.006;4.374;2023-05-15T12:55:21;13.60;1.00
17178;DHT22;8704;52.006;4.374;2023-05-15T12:57:50;13.70;1.00
17178;DHT22;8704;52.006;4.374;2023-05-15T13:00:20;13.70;1.00
17178;DHT22;8704;52.006;4.374;2023-05-15T13:02:51;13.90;1.00
17178;DHT22;8704;52.006;4.374;2023-05-15T13:05:22;13.70;1.00
17178;DHT22;8704;52.006;4.374;2023-05-15T13:07:50;13.40;1.00
17178;DHT22;8704;52.006;4.374;2023-05-15T13:10:20;13.50;1.00
17178;DHT22;8704;52.006;4.374;2023-05-15T13:12:50;13.70;1.00
17178;DHT22;8704;52.006;4.374;2023-05-15T13:15:24;13.60;1.00
17178;DHT22;8704;52.006;4.374;2023-05-15T13:17:58;13.70;1.00
17178;DHT22;8704;52.006;4.374;2023-05-15T13:20:27;13.60;1.00
17178;DHT22;8704;52.006;4.374;2023-05-15T13:22:55;13.80;1.00
17178;DHT22;8704;52.006;4.374;2023-05-15T13:25:23;13.70;1.00
17178;DHT22;8704;52.006;4.374;2023-05-15T13:27:51;13.90;1.00
17178;DHT22;8704;52.006;4.374;2023-05-15T13:30:19;13.50;1.00
17178;DHT22;8704;52.006;4.374;2023-05-15T13:32:47;13.70;1.00
17178;DHT22;8704;52.006;4.374;2023-05-15T13:35:16;13.60;1.00
17178;DHT22;8704;52.006;4.374;2023-05-15T13:37:44;13.30;1.00
17178;DHT22;8704;52.006;4.374;2023-05-15T13:40:13;13.30;1.00
17178;DHT22;8704;52.006;4.374;2023-05-15T13:42:41;13.20;1.00
17178;DHT22;8704;52.006;4.374;2023-05-15T13:45:12;13.80;1.00
17178;DHT22;8704;52.006;4.374;2023-05-15T13:47:40;13.40;1.00
17178;DHT22;8704;52.006;4.374;2023-05-15T13:50:09;13.30;1.00
17178;DHT22;8704;52.006;4.374;2023-05-15T13:52:39;13.20;1.00
17178;DHT22;8704;52.006;4.374;2023-05-15T13:55:09;13.20;1.00
17178;DHT22;8704;52.006;4.374;2023-05-15T13:57:37;13.30;1.00
17178;DHT22;8704;52.006;4.374;2023-05-15T14:00:06;13.30;1.00
17178;DHT22;8704;52.006;4.374;2023-05-15T14:02:37;13.40;1.00
17178;DHT22;8704;52.006;4.374;2023-05-15T14:05:06;13.40;1.00
17178;DHT22;8704;52.006;4.374;2023-05-15T14:07:35;13.40;1.00
17178;DHT22;8704;52.006;4.374;2023-05-15T14:10:05;13.40;1.00
17178;DHT22;8704;52.006;4.374;2023-05-15T14:12:34;13.50;1.00
17178;DHT22;8704;52.006;4.374;2023-05-15T14:15:03;14.00;1.00
17178;DHT22;8704;52.006;4.374;2023-05-15T14:17:31;13.40;1.00
17178;DHT22;8704;52.006;4.374;2023-05-15T14:19:59;13.50;1.00
17178;DHT22;8704;52.006;4.374;2023-05-15T14:22:27;13.30;1.00
17178;DHT22;8704;52.006;4.374;2023-05-15T14:24:55;13.20;1.00
17178;DHT22;8704;52.006;4.374;2023-05-15T14:27:24;13.10;1.00
17178;DHT22;8704;52.006;4.374;2023-05-15T14:29:52;13.00;1.00
17178;DHT22;8704;52.006;4.374;2023-05-15T14:32:22;13.10;1.00
17178;DHT22;8704;52.006;4.374;2023-05-15T14:34:50;13.30;1.00
17178;DHT22;8704;52.006;4.374;2023-05-15T14:37:18;13.30;1.00
17178;DHT22;8704;52.006;4.374;2023-05-15T14:39:46;13.40;1.00
17178;DHT22;8704;52.006;4.374;2023-05-15T14:42:14;13.40;1.00
17178;DHT22;8704;52.006;4.374;2023-05-15T14:44:44;13.40;1.00
17178;DHT22;8704;52.006;4.374;2023-05-15T14:47:12;13.60;1.00
17178;DHT22;8704;52.006;4.374;2023-05-15T14:49:40;13.20;1.00
17178;DHT22;8704;52.006;4.374;2023-05-15T14:52:09;13.30;1.00
17178;DHT22;8704;52.006;4.374;2023-05-15T14:54:37;13.30;1.00
17178;DHT22;8704;52.006;4.374;2023-05-15T14:57:06;13.10;1.00
17178;DHT22;8704;52.006;4.374;2023-05-15T14:59:34;13.00;1.00
17178;DHT22;8704;52.006;4.374;2023-05-15T15:02:04;13.00;1.00
17178;DHT22;8704;52.006;4.374;2023-05-15T15:04:32;12.80;1.00
17178;DHT22;8704;52.006;4.374;2023-05-15T15:07:03;12.80;1.00
17178;DHT22;8704;52.006;4.374;2023-05-15T15:09:31;12.80;1.00
17178;DHT22;8704;52.006;4.374;2023-05-15T15:11:59;13.10;1.00
17178;DHT22;8704;52.006;4.374;2023-05-15T15:14:27;12.90;1.00
17178;DHT22;8704;52.006;4.374;2023-05-15T15:16:54;12.80;1.00
17178;DHT22;8704;52.006;4.374;2023-05-15T15:19:24;13.30;1.00
17178;DHT22;8704;52.006;4.374;2023-05-15T15:21:52;12.60;1.00
17178;DHT22;8704;52.006;4.374;2023-05-15T15:24:20;13.00;1.00
17178;DHT22;8704;52.006;4.374;2023-05-15T15:26:48;12.60;1.00
17178;DHT22;8704;52.006;4.374;2023-05-15T15:29:16;12.60;1.00
17178;DHT22;8704;52.006;4.374;2023-05-15T15:31:44;13.20;1.00
17178;DHT22;8704;52.006;4.374;2023-05-15T15:34:12;12.50;1.00
17178;DHT22;8704;52.006;4.374;2023-05-15T15:36:41;12.60;1.00
17178;DHT22;8704;52.006;4.374;2023-05-15T15:39:09;12.60;1.00
17178;DHT22;8704;52.006;4.374;2023-05-15T15:41:38;12.60;1.00
17178;DHT22;8704;52.006;4.374;2023-05-15T15:44:06;12.70;1.00
17178;DHT22;8704;52.006;4.374;2023-05-15T15:46:34;12.50;1.00
17178;DHT22;8704;52.006;4.374;2023-05-15T15:49:02;12.50;1.00
17178;DHT22;8704;52.006;4.374;2023-05-15T15:51:32;12.60;1.00
17178;DHT22;8704;52.006;4.374;2023-05-15T15:54:01;12.50;1.00
17178;DHT22;8704;52.006;4.374;2023-05-15T15:56:29;12.40;1.00
17178;DHT22;8704;52.006;4.374;2023-05-15T15:58:57;12.40;1.00
17178;DHT22;8704;52.006;4.374;2023-05-15T16:01:25;12.60;1.00
17178;DHT22;8704;52.006;4.374;2023-05-15T16:03:53;12.40;1.00
17178;DHT22;8704;52.006;4.374;2023-05-15T16:06:21;12.40;1.00
17178;DHT22;8704;52.006;4.374;2023-05-15T16:08:50;12.50;1.00
17178;DHT22;8704;52.006;4.374;2023-05-15T16:11:19;12.10;1.00
17178;DHT22;8704;52.006;4.374;2023-05-15T16:13:47;12.10;1.00